Time;durP1;ratioP1;P1;durP2;ratioP2;P2;SDS_P1;SDS_P2;PMS_P1;PMS_P2;Temp;Humidity;BMP_temperature;BMP_pressure;BME280_temperature;BME280_humidity;BME280_pressure;Samples;Min_cycle;Max_cycle;Signal;HPM_P1;HPM_P2
2022/02/22 00:01:34;;;;;;;20.93;5.33;;;5.60;99.90;;;;;;5072077;28;20205;-46
2022/02/22 00:04:00;;;;;;;17.57;3.80;;;5.60;99.90;;;;;;5049945;28;20206;-47
2022/02/22 00:06:28;;;;;;;18.53;4.10;;;5.60;99.90;;;;;;5060679;28;20206;-43
2022/02/22 00:08:55;;;;;;;12.23;3.13;;;5.60;99.90;;;;;;5063168;28;20217;-43
2022/02/22 00:11:22;;;;;;;15.77;3.20;;;5.50;99.90;;;;;;5064220;28;20311;-44
2022/02/22 00:13:49;;;;;;;17.80;3.93;;;5.60;99.90;;;;;;5064244;28;20686;-43
2022/02/22 00:16:15;;;;;;;22.97;4.13;;;5.60;99.90;;;;;;5062475;28;20198;-43
2022/02/22 00:18:42;;;;;;;17.10;3.43;;;5.60;99.90;;;;;;5058475;28;20206;-44
2022/02/22 00:21:09;;;;;;;22.60;3.90;;;5.60;99.90;;;;;;5048258;28;20223;-43
2022/02/22 00:23:37;;;;;;;23.83;3.73;;;5.50;99.90;;;;;;5065257;28;20202;-44
2022/02/22 00:26:03;;;;;;;19.20;4.37;;;5.50;99.90;;;;;;5060573;28;20209;-42
2022/02/22 00:28:30;;;;;;;16.17;3.30;;;5.50;99.90;;;;;;5065051;28;20203;-43
2022/02/22 00:30:57;;;;;;;20.10;3.60;;;5.50;99.90;;;;;;5062015;28;20226;-43
2022/02/22 00:33:24;;;;;;;14.70;3.47;;;5.50;99.90;;;;;;5057959;28;20219;-43
2022/02/22 00:35:51;;;;;;;17.97;3.33;;;5.50;99.90;;;;;;5048116;28;20213;-42
2022/02/22 00:38:19;;;;;;;14.07;3.00;;;5.60;99.90;;;;;;5062725;28;20205;-45
2022/02/22 00:40:47;;;;;;;14.60;3.30;;;5.60;99.90;;;;;;5064190;28;20215;-46
2022/02/22 00:43:13;;;;;;;22.57;3.77;;;5.60;99.90;;;;;;5061727;28;20199;-43
2022/02/22 00:45:40;;;;;;;11.83;3.10;;;5.60;99.90;;;;;;5064554;28;20640;-43
2022/02/22 00:48:07;;;;;;;15.30;3.23;;;5.50;99.90;;;;;;5053412;28;20446;-46
2022/02/22 00:50:35;;;;;;;18.00;2.97;;;5.50;99.90;;;;;;5049829;28;20309;-43
2022/02/22 00:53:02;;;;;;;16.70;4.03;;;5.50;99.90;;;;;;5060464;28;20367;-44
2022/02/22 00:55:28;;;;;;;16.13;3.60;;;5.40;99.90;;;;;;5064423;28;20218;-47
2022/02/22 00:57:56;;;;;;;23.33;3.43;;;5.40;99.90;;;;;;5061563;28;20205;-46
2022/02/22 01:00:23;;;;;;;25.93;4.20;;;5.40;99.90;;;;;;5062078;28;20226;-44
2022/02/22 01:02:50;;;;;;;19.40;3.03;;;5.40;99.90;;;;;;5062951;28;20187;-43
2022/02/22 01:05:16;;;;;;;21.40;3.63;;;5.40;99.90;;;;;;5054929;28;20431;-47
2022/02/22 01:07:43;;;;;;;18.57;3.20;;;5.30;99.90;;;;;;5050066;28;20206;-43
2022/02/22 01:10:10;;;;;;;17.40;4.60;;;5.30;99.90;;;;;;5060568;28;20865;-44
2022/02/22 01:12:38;;;;;;;16.17;3.47;;;5.30;99.90;;;;;;5063883;28;20229;-43
2022/02/22 01:15:08;;;;;;;14.37;3.67;;;5.30;99.90;;;;;;5059941;28;20292;-44
2022/02/22 01:17:35;;;;;;;16.00;3.00;;;5.30;99.90;;;;;;5063825;28;20781;-45
2022/02/22 01:20:05;;;;;;;11.30;2.93;;;5.30;99.90;;;;;;5053214;28;20305;-44
2022/02/22 01:22:32;;;;;;;18.90;2.97;;;5.30;99.90;;;;;;5050527;28;20203;-42
2022/02/22 01:24:59;;;;;;;15.30;3.40;;;5.30;99.90;;;;;;5060456;28;20195;-44
2022/02/22 01:27:26;;;;;;;15.03;3.43;;;5.30;99.90;;;;;;5063132;28;20210;-46
2022/02/22 01:29:52;;;;;;;12.37;2.83;;;5.30;99.90;;;;;;5061616;28;20234;-43
2022/02/22 01:32:20;;;;;;;18.30;2.57;;;5.30;99.90;;;;;;5061935;28;20222;-43
2022/02/22 01:34:47;;;;;;;18.13;3.17;;;5.30;99.90;;;;;;5062637;28;20206;-41
2022/02/22 01:37:13;;;;;;;18.90;2.97;;;5.30;99.90;;;;;;5052526;28;20493;-43
2022/02/22 01:39:40;;;;;;;12.97;2.73;;;5.40;99.90;;;;;;5064804;28;20222;-46
2022/02/22 01:42:07;;;;;;;17.10;3.53;;;5.40;99.90;;;;;;5059652;28;20402;-43
2022/02/22 01:44:34;;;;;;;19.60;3.23;;;5.40;99.90;;;;;;5063973;28;20198;-43
2022/02/22 01:47:02;;;;;;;15.53;3.50;;;5.40;99.90;;;;;;5059468;28;20257;-43
2022/02/22 01:49:30;;;;;;;11.00;3.07;;;5.40;99.90;;;;;;5063595;28;20261;-42
2022/02/22 01:51:57;;;;;;;16.57;3.77;;;5.40;99.90;;;;;;5053616;28;20206;-45
2022/02/22 01:54:26;;;;;;;17.63;3.53;;;5.40;99.90;;;;;;5049253;28;20226;-43
2022/02/22 01:56:54;;;;;;;17.07;3.50;;;5.40;99.90;;;;;;5061164;28;20226;-43
2022/02/22 01:59:21;;;;;;;25.50;3.97;;;5.40;99.90;;;;;;5061784;28;20398;-45
2022/02/22 02:01:48;;;;;;;15.70;3.73;;;5.40;99.90;;;;;;5062536;28;20643;-44
2022/02/22 02:04:14;;;;;;;18.60;3.73;;;5.40;99.90;;;;;;5060326;28;20198;-43
2022/02/22 02:06:42;;;;;;;15.67;3.33;;;5.40;99.90;;;;;;5057269;28;20203;-47
2022/02/22 02:09:10;;;;;;;16.23;3.23;;;5.40;99.90;;;;;;5052801;28;20214;-42
2022/02/22 02:11:45;;;;;;;13.40;3.30;;;5.40;99.90;;;;;;5063079;28;20566;-44
2022/02/22 02:14:11;;;;;;;11.23;3.53;;;5.40;99.90;;;;;;5059831;28;20421;-43
2022/02/22 02:16:39;;;;;;;15.97;3.93;;;5.50;99.90;;;;;;5063061;28;20195;-44
2022/02/22 02:19:06;;;;;;;17.37;3.27;;;5.50;99.90;;;;;;5059153;28;21048;-43
2022/02/22 02:21:32;;;;;;;21.07;3.83;;;5.50;99.90;;;;;;5056559;28;20206;-42
2022/02/22 02:24:11;;;;;;;20.40;4.83;;;5.50;99.90;;;;;;5048497;28;20202;-43
2022/02/22 02:26:38;;;;;;;24.73;4.57;;;5.50;99.90;;;;;;5061030;28;20194;-46
2022/02/22 02:29:07;;;;;;;20.87;4.00;;;5.40;99.90;;;;;;5058981;28;20273;-45
2022/02/22 02:31:34;;;;;;;21.93;3.77;;;5.40;99.90;;;;;;5063090;28;20198;-46
2022/02/22 02:34:00;;;;;;;18.00;4.00;;;5.40;99.90;;;;;;5059032;28;20210;-43
2022/02/22 02:36:27;;;;;;;15.20;3.23;;;5.30;99.90;;;;;;5062834;28;20194;-43
2022/02/22 02:38:54;;;;;;;22.07;4.13;;;5.10;99.90;;;;;;5053840;28;20206;-43
2022/02/22 02:41:22;;;;;;;22.93;4.57;;;5.00;99.90;;;;;;5057439;28;20198;-43
2022/02/22 02:43:49;;;;;;;23.50;4.67;;;4.90;99.90;;;;;;5061709;28;20554;-45
2022/02/22 02:46:16;;;;;;;26.93;5.70;;;4.90;99.90;;;;;;5060477;28;20333;-45
2022/02/22 02:48:42;;;;;;;20.17;4.63;;;4.90;99.90;;;;;;5062937;28;20199;-43
2022/02/22 02:51:09;;;;;;;21.00;4.37;;;4.90;99.90;;;;;;5059118;28;20908;-45
2022/02/22 02:53:36;;;;;;;28.20;4.80;;;5.00;99.90;;;;;;5056304;28;20246;-43
2022/02/22 02:56:03;;;;;;;20.93;4.53;;;5.00;99.90;;;;;;5044966;28;20210;-43
2022/02/22 02:58:31;;;;;;;18.57;4.07;;;5.00;99.90;;;;;;5064077;28;20230;-44
2022/02/22 03:00:58;;;;;;;23.77;3.90;;;5.00;99.90;;;;;;5063479;28;20711;-44
2022/02/22 03:03:25;;;;;;;23.17;3.63;;;5.00;99.90;;;;;;5066201;28;20186;-44
2022/02/22 03:05:51;;;;;;;17.93;3.53;;;5.00;99.90;;;;;;5061099;28;20617;-47
2022/02/22 03:08:18;;;;;;;16.33;4.07;;;5.10;99.90;;;;;;5057587;28;20416;-46
2022/02/22 03:10:47;;;;;;;19.67;4.13;;;5.10;99.90;;;;;;5062741;28;20634;-44
2022/02/22 03:13:13;;;;;;;13.80;3.17;;;5.00;99.90;;;;;;5054113;28;20356;-43
2022/02/22 03:15:41;;;;;;;21.23;3.97;;;5.00;99.90;;;;;;5066150;28;20198;-43
2022/02/22 03:18:09;;;;;;;16.50;3.43;;;5.00;99.90;;;;;;5062089;28;20194;-43
2022/02/22 03:20:36;;;;;;;6.53;2.63;;;5.00;99.90;;;;;;5066315;28;20231;-44
2022/02/22 03:23:03;;;;;;;12.90;3.33;;;5.00;99.90;;;;;;5055666;28;20214;-44
2022/02/22 03:25:29;;;;;;;13.20;3.47;;;5.00;99.90;;;;;;5082109;28;20206;-42
2022/02/22 03:27:57;;;;;;;20.33;3.13;;;5.00;99.90;;;;;;5059519;28;20209;-42
2022/02/22 03:30:26;;;;;;;15.47;3.53;;;5.00;99.90;;;;;;5064158;28;20590;-44
2022/02/22 03:32:54;;;;;;;23.87;3.73;;;5.00;99.90;;;;;;5063940;28;20314;-43
2022/02/22 03:35:21;;;;;;;28.10;4.57;;;5.00;99.90;;;;;;5064332;28;20198;-43
2022/02/22 03:37:47;;;;;;;20.73;3.93;;;5.10;99.90;;;;;;5064792;28;20203;-46
2022/02/22 03:40:14;;;;;;;18.33;3.97;;;5.00;99.90;;;;;;5056392;28;20228;-43
2022/02/22 03:42:42;;;;;;;24.83;3.73;;;5.00;99.90;;;;;;5050049;28;20268;-44
2022/02/22 03:45:10;;;;;;;22.87;4.50;;;5.00;99.90;;;;;;5061823;28;20940;-43
2022/02/22 03:47:37;;;;;;;21.40;3.57;;;5.00;99.90;;;;;;5065673;28;20213;-46
2022/02/22 03:50:06;;;;;;;20.67;4.03;;;5.00;99.90;;;;;;5061687;28;20434;-45
2022/02/22 03:52:33;;;;;;;22.93;4.77;;;5.00;99.90;;;;;;5065603;28;20210;-46
2022/02/22 03:55:00;;;;;;;15.57;3.93;;;5.00;99.90;;;;;;5055174;28;20203;-47
2022/02/22 03:57:27;;;;;;;15.20;3.73;;;5.00;99.90;;;;;;5065096;28;20270;-45
2022/02/22 03:59:53;;;;;;;22.07;3.47;;;5.00;99.90;;;;;;5049666;28;20225;-44
2022/02/22 04:02:20;;;;;;;27.97;4.60;;;5.00;99.90;;;;;;5063904;28;20187;-42
2022/02/22 04:04:48;;;;;;;18.53;4.10;;;5.00;99.90;;;;;;5064627;28;20195;-43
2022/02/22 04:07:16;;;;;;;22.90;3.90;;;5.00;99.90;;;;;;5062631;28;20434;-47
2022/02/22 04:09:43;;;;;;;16.90;4.07;;;5.00;99.90;;;;;;5064698;28;20237;-44
2022/02/22 04:12:10;;;;;;;23.93;3.87;;;5.10;99.90;;;;;;5054909;28;20207;-45
2022/02/22 04:14:38;;;;;;;26.80;4.37;;;5.00;99.90;;;;;;5051846;28;20305;-43
2022/02/22 04:17:06;;;;;;;22.00;4.47;;;5.00;99.90;;;;;;5061027;28;20204;-42
2022/02/22 04:19:32;;;;;;;16.93;3.40;;;5.00;99.90;;;;;;5065169;28;20228;-41
2022/02/22 04:21:59;;;;;;;24.97;4.10;;;5.10;99.90;;;;;;5061825;28;20199;-43
2022/02/22 04:24:27;;;;;;;20.53;4.40;;;5.10;99.90;;;;;;5064837;28;20298;-42
2022/02/22 04:26:54;;;;;;;21.30;3.60;;;5.10;99.90;;;;;;5055788;28;20195;-43
2022/02/22 04:29:21;;;;;;;14.43;2.73;;;5.10;99.90;;;;;;5049703;28;20826;-44
2022/02/22 04:31:47;;;;;;;11.03;3.87;;;5.10;99.90;;;;;;5063738;28;20558;-44
2022/02/22 04:34:14;;;;;;;19.17;4.33;;;5.10;99.90;;;;;;5062099;28;20990;-44
2022/02/22 04:36:41;;;;;;;20.77;3.87;;;5.10;99.90;;;;;;5064441;28;20203;-45
2022/02/22 04:39:07;;;;;;;15.10;2.73;;;5.10;99.90;;;;;;5060784;28;20203;-43
2022/02/22 04:41:35;;;;;;;8.43;2.03;;;5.10;99.90;;;;;;5064984;28;20203;-46
2022/02/22 04:44:02;;;;;;;10.33;1.90;;;5.10;99.90;;;;;;5039819;28;20563;-43
2022/02/22 04:46:29;;;;;;;8.43;1.90;;;5.10;99.90;;;;;;5069212;28;20690;-43
2022/02/22 04:48:55;;;;;;;9.03;1.80;;;5.00;99.90;;;;;;5061982;28;20194;-44
2022/02/22 04:51:22;;;;;;;8.33;1.37;;;4.90;99.90;;;;;;5063499;28;20371;-46
2022/02/22 04:53:48;;;;;;;13.97;1.70;;;4.90;99.90;;;;;;5063424;28;20222;-46
2022/02/22 04:56:15;;;;;;;11.57;1.90;;;4.80;99.90;;;;;;5061964;28;20187;-43
2022/02/22 04:58:43;;;;;;;9.00;1.90;;;4.80;99.90;;;;;;5057773;28;20664;-44
2022/02/22 05:01:10;;;;;;;8.47;1.87;;;4.80;99.90;;;;;;5047271;28;20280;-44
2022/02/22 05:03:38;;;;;;;10.97;2.00;;;4.70;99.90;;;;;;5063762;28;20200;-44
2022/02/22 05:06:04;;;;;;;11.70;1.90;;;4.80;99.90;;;;;;5059855;28;21055;-45
2022/02/22 05:08:31;;;;;;;11.10;2.43;;;4.80;99.90;;;;;;5064446;28;20203;-46
2022/02/22 05:10:57;;;;;;;13.40;2.60;;;4.80;99.90;;;;;;5061036;28;20233;-45
2022/02/22 05:13:24;;;;;;;9.60;2.57;;;4.80;99.90;;;;;;5056772;28;20306;-43
2022/02/22 05:15:52;;;;;;;10.97;2.00;;;4.80;99.90;;;;;;5048777;28;20198;-44
2022/02/22 05:18:18;;;;;;;12.73;2.53;;;4.70;99.90;;;;;;5061928;28;20229;-46
2022/02/22 05:20:55;;;;;;;18.40;2.83;;;4.70;99.90;;;;;;5063104;28;20222;-44
2022/02/22 05:23:22;;;;;;;8.80;2.50;;;4.70;99.90;;;;;;5062755;28;20197;-46
2022/02/22 05:25:49;;;;;;;9.27;1.50;;;4.70;99.90;;;;;;5062772;28;20201;-45
2022/02/22 05:28:16;;;;;;;17.37;3.80;;;4.70;99.90;;;;;;5054612;28;20213;-43
2022/02/22 05:30:43;;;;;;;11.87;2.20;;;4.60;99.90;;;;;;5064228;28;20538;-43
2022/02/22 05:33:11;;;;;;;13.50;2.27;;;4.60;99.90;;;;;;5047636;28;20302;-44
2022/02/22 05:35:38;;;;;;;13.53;2.63;;;4.50;99.90;;;;;;5063431;28;20514;-44
2022/02/22 05:38:04;;;;;;;13.27;2.70;;;4.50;99.90;;;;;;5052525;28;20198;-43
2022/02/22 05:40:33;;;;;;;13.27;2.57;;;4.50;99.90;;;;;;5063900;28;20218;-43
2022/02/22 05:42:59;;;;;;;19.17;3.10;;;4.40;99.90;;;;;;5059580;28;20206;-42
2022/02/22 05:45:26;;;;;;;12.93;2.70;;;4.40;99.90;;;;;;5065242;28;20197;-43
2022/02/22 05:47:53;;;;;;;13.17;2.57;;;4.40;99.90;;;;;;5056144;28;20234;-43
2022/02/22 05:50:20;;;;;;;13.77;2.83;;;4.40;99.90;;;;;;5062501;28;20229;-45
2022/02/22 05:52:47;;;;;;;12.30;2.47;;;4.40;99.90;;;;;;5061547;28;20324;-43
2022/02/22 05:55:14;;;;;;;17.67;3.10;;;4.40;99.90;;;;;;5061448;28;20215;-44
2022/02/22 05:57:42;;;;;;;15.93;2.80;;;4.40;99.90;;;;;;5062493;28;20209;-43
2022/02/22 06:00:11;;;;;;;17.40;3.07;;;4.50;99.90;;;;;;5053249;28;20252;-42
2022/02/22 06:02:38;;;;;;;15.33;2.77;;;4.50;99.90;;;;;;5056585;28;20206;-45
2022/02/22 06:05:07;;;;;;;13.90;2.47;;;4.50;99.90;;;;;;5059702;28;20557;-42
2022/02/22 06:07:35;;;;;;;16.10;3.23;;;4.60;99.90;;;;;;5063085;28;20206;-44
2022/02/22 06:10:03;;;;;;;19.23;3.50;;;4.60;99.90;;;;;;5059063;28;20217;-43
2022/02/22 06:12:30;;;;;;;13.33;3.23;;;4.60;99.90;;;;;;5063416;28;20761;-43
2022/02/22 06:14:56;;;;;;;19.87;4.33;;;4.70;99.90;;;;;;5059663;28;20225;-44
2022/02/22 06:17:23;;;;;;;17.77;3.07;;;4.70;99.90;;;;;;5064680;28;20206;-42
2022/02/22 06:19:51;;;;;;;19.07;2.83;;;4.70;99.90;;;;;;5048982;28;20225;-44
2022/02/22 06:22:18;;;;;;;22.20;3.83;;;4.70;99.90;;;;;;5061913;28;20239;-43
2022/02/22 06:24:46;;;;;;;15.73;3.00;;;4.70;99.90;;;;;;5062145;28;20198;-44
2022/02/22 06:27:13;;;;;;;15.50;3.83;;;4.70;99.90;;;;;;5061009;28;20267;-45
2022/02/22 06:29:40;;;;;;;19.37;3.57;;;4.70;99.90;;;;;;5062665;28;20226;-45
2022/02/22 06:32:07;;;;;;;19.17;4.07;;;4.70;99.90;;;;;;5053166;28;20527;-45
2022/02/22 06:34:34;;;;;;;18.10;3.53;;;4.70;99.90;;;;;;5053905;28;20689;-46
2022/02/22 06:37:00;;;;;;;17.63;4.00;;;4.70;99.90;;;;;;5062775;28;20273;-43
2022/02/22 06:39:27;;;;;;;21.97;4.10;;;4.80;99.90;;;;;;5067098;28;20242;-43
2022/02/22 06:41:55;;;;;;;15.77;3.97;;;4.80;99.90;;;;;;5063846;28;20210;-43
2022/02/22 06:44:22;;;;;;;15.03;4.03;;;4.80;99.90;;;;;;5066818;28;20202;-43
2022/02/22 06:46:48;;;;;;;20.90;3.47;;;4.80;99.90;;;;;;5064689;28;20202;-44
2022/02/22 06:49:15;;;;;;;17.27;3.77;;;4.80;99.90;;;;;;5045368;28;21149;-43
2022/02/22 06:51:42;;;;;;;11.67;3.60;;;4.80;99.90;;;;;;5065992;28;20198;-45
2022/02/22 06:54:08;;;;;;;25.73;3.60;;;4.80;99.90;;;;;;5063833;28;20221;-45
2022/02/22 06:56:35;;;;;;;13.30;3.27;;;4.80;99.90;;;;;;5066787;28;20686;-46
2022/02/22 06:59:03;;;;;;;16.07;3.97;;;4.80;99.90;;;;;;5062776;28;20198;-43
2022/02/22 07:01:29;;;;;;;17.07;3.83;;;4.90;99.90;;;;;;5066883;28;20194;-43
2022/02/22 07:03:56;;;;;;;21.77;3.70;;;4.90;99.90;;;;;;5044117;28;20693;-48
2022/02/22 07:06:23;;;;;;;20.07;3.83;;;4.90;99.90;;;;;;5065990;28;20195;-43
2022/02/22 07:08:50;;;;;;;19.87;3.47;;;5.00;99.90;;;;;;5064014;28;20248;-45
2022/02/22 07:11:17;;;;;;;19.37;3.23;;;5.00;99.90;;;;;;5065325;28;20324;-44
2022/02/22 07:13:44;;;;;;;15.27;3.53;;;5.10;99.90;;;;;;5065267;28;20219;-44
2022/02/22 07:16:14;;;;;;;20.43;3.03;;;5.10;99.90;;;;;;5063962;28;20260;-46
2022/02/22 07:18:40;;;;;;;11.70;2.67;;;5.10;99.90;;;;;;5066225;28;20206;-43
2022/02/22 07:21:07;;;;;;;17.53;3.33;;;5.10;99.90;;;;;;5042825;28;20221;-42
2022/02/22 07:23:34;;;;;;;17.63;3.60;;;5.20;99.90;;;;;;5066256;28;21004;-43
2022/02/22 07:26:01;;;;;;;19.50;4.27;;;5.20;99.90;;;;;;5061934;28;20200;-44
2022/02/22 07:28:27;;;;;;;22.83;4.13;;;5.20;99.90;;;;;;5066149;28;20202;-45
2022/02/22 07:30:54;;;;;;;17.23;3.00;;;5.30;99.90;;;;;;5062993;28;20713;-43
2022/02/22 07:33:22;;;;;;;25.40;4.00;;;5.30;99.90;;;;;;5065716;28;20199;-43
2022/02/22 07:35:49;;;;;;;12.80;3.93;;;5.30;99.90;;;;;;5048621;28;20226;-42
2022/02/22 07:38:16;;;;;;;22.77;4.97;;;5.30;99.90;;;;;;5064266;28;20210;-43
2022/02/22 07:40:43;;;;;;;18.17;4.40;;;5.30;99.90;;;;;;5064984;28;20217;-44
2022/02/22 07:43:10;;;;;;;16.23;3.90;;;5.40;99.90;;;;;;5063280;28;20942;-44
2022/02/22 07:45:37;;;;;;;19.57;3.37;;;5.40;99.90;;;;;;5065430;28;20656;-43
2022/02/22 07:48:04;;;;;;;14.93;3.67;;;5.40;99.90;;;;;;5061690;28;20221;-44
2022/02/22 07:50:31;;;;;;;17.13;3.97;;;5.40;99.90;;;;;;5065462;28;20245;-43
2022/02/22 07:52:58;;;;;;;21.00;3.57;;;5.50;99.90;;;;;;5047073;28;20807;-44
2022/02/22 07:55:25;;;;;;;21.40;2.97;;;5.50;99.90;;;;;;5065440;28;20227;-43
2022/02/22 07:57:52;;;;;;;16.93;5.00;;;5.50;99.90;;;;;;5062674;28;20565;-43
2022/02/22 08:00:19;;;;;;;15.20;2.97;;;5.50;99.90;;;;;;5064889;28;20234;-45
2022/02/22 08:02:46;;;;;;;19.17;3.30;;;5.50;99.90;;;;;;5057876;28;20685;-43
2022/02/22 08:05:13;;;;;;;20.57;3.60;;;5.50;99.90;;;;;;5068385;28;20195;-45
2022/02/22 08:07:41;;;;;;;15.73;3.17;;;5.50;99.90;;;;;;5048732;28;20211;-47
2022/02/22 08:10:09;;;;;;;24.97;3.17;;;5.50;99.90;;;;;;5056340;28;20417;-46
2022/02/22 08:12:36;;;;;;;16.53;3.40;;;5.50;99.90;;;;;;5059074;28;20209;-43
2022/02/22 08:15:03;;;;;;;20.73;3.70;;;5.50;99.90;;;;;;5055050;28;20210;-46
2022/02/22 08:17:30;;;;;;;14.70;3.30;;;5.60;99.90;;;;;;5058543;28;20198;-43
2022/02/22 08:19:56;;;;;;;24.67;3.20;;;5.60;99.90;;;;;;5054787;28;20233;-45
2022/02/22 08:22:24;;;;;;;22.20;2.73;;;5.60;99.90;;;;;;5040758;28;20286;-45
2022/02/22 08:24:52;;;;;;;21.57;4.30;;;5.60;99.90;;;;;;5070205;28;20221;-43
2022/02/22 08:27:19;;;;;;;17.03;3.67;;;5.60;99.90;;;;;;5083415;28;20198;-43
2022/02/22 08:29:46;;;;;;;20.13;2.97;;;5.70;99.90;;;;;;5083039;28;20226;-43
2022/02/22 08:32:13;;;;;;;12.23;2.73;;;5.70;99.90;;;;;;5077820;28;20202;-43
2022/02/22 08:34:39;;;;;;;14.73;3.10;;;5.70;99.90;;;;;;5064737;28;20218;-45
2022/02/22 08:37:06;;;;;;;17.60;3.70;;;5.70;99.90;;;;;;5046707;28;20206;-44
2022/02/22 08:39:33;;;;;;;16.93;3.97;;;5.70;99.90;;;;;;5064541;28;20225;-43
2022/02/22 08:42:06;;;;;;;17.27;3.23;;;5.80;99.90;;;;;;5061127;28;20195;-43
2022/02/22 08:44:33;;;;;;;20.67;3.77;;;5.80;99.90;;;;;;5065090;28;20191;-45
2022/02/22 08:47:00;;;;;;;18.37;3.73;;;5.90;99.90;;;;;;5060441;28;20199;-47
2022/02/22 08:49:27;;;;;;;16.90;3.03;;;6.00;99.90;;;;;;5064420;28;20223;-45
2022/02/22 08:51:54;;;;;;;18.50;3.63;;;6.10;99.90;;;;;;5055339;28;20199;-43
2022/02/22 08:54:20;;;;;;;15.57;3.17;;;6.20;99.90;;;;;;5043247;28;20223;-45
2022/02/22 08:56:47;;;;;;;20.43;2.97;;;6.30;99.90;;;;;;5061853;28;20677;-43
2022/02/22 08:59:15;;;;;;;13.00;2.70;;;6.30;99.90;;;;;;5081639;28;20443;-44
2022/02/22 09:01:42;;;;;;;13.13;2.93;;;6.30;99.90;;;;;;5083381;28;20198;-46
2022/02/22 09:04:09;;;;;;;19.07;3.83;;;6.40;99.90;;;;;;5061400;28;20201;-45
2022/02/22 09:06:36;;;;;;;11.80;2.77;;;6.40;99.90;;;;;;5064118;28;20285;-44
2022/02/22 09:09:02;;;;;;;14.00;3.77;;;6.40;99.90;;;;;;5045371;28;20206;-45
2022/02/22 09:11:31;;;;;;;17.10;3.23;;;6.50;99.90;;;;;;5064127;28;20663;-43
2022/02/22 09:13:58;;;;;;;18.13;3.60;;;6.60;99.90;;;;;;5059927;28;20234;-45
2022/02/22 09:16:26;;;;;;;11.37;2.60;;;6.60;99.90;;;;;;5064166;28;20199;-45
2022/02/22 09:18:54;;;;;;;16.37;2.90;;;6.70;99.90;;;;;;5080426;28;20243;-45
2022/02/22 09:21:20;;;;;;;14.37;2.80;;;6.70;99.90;;;;;;5083104;28;20277;-44
2022/02/22 09:23:47;;;;;;;19.90;2.20;;;6.70;99.90;;;;;;5081576;28;20517;-42
2022/02/22 09:26:15;;;;;;;10.50;2.47;;;6.80;99.90;;;;;;5053901;28;20570;-43
2022/02/22 09:28:44;;;;;;;12.47;2.57;;;6.80;99.90;;;;;;5063058;28;20201;-42
2022/02/22 09:31:10;;;;;;;15.10;2.63;;;6.80;99.90;;;;;;5080749;28;20222;-43
2022/02/22 09:34:01;;;;;;;19.40;3.57;;;6.80;99.90;;;;;;5066577;28;20337;-43
2022/02/22 09:36:28;;;;;;;18.50;3.67;;;6.80;99.90;;;;;;5063577;28;20222;-43
2022/02/22 09:38:54;;;;;;;12.67;2.90;;;6.90;99.90;;;;;;5060611;28;20773;-44
2022/02/22 09:41:21;;;;;;;16.67;3.03;;;6.80;99.90;;;;;;5049522;28;20207;-46
2022/02/22 09:43:48;;;;;;;11.13;2.70;;;6.90;99.90;;;;;;5061859;28;20668;-44
2022/02/22 09:46:15;;;;;;;15.43;3.57;;;7.00;99.90;;;;;;5061821;28;20380;-44
2022/02/22 09:48:42;;;;;;;19.23;3.30;;;7.00;99.90;;;;;;5063220;28;20210;-46
2022/02/22 09:51:09;;;;;;;19.67;2.73;;;7.10;99.90;;;;;;5060489;28;20203;-43
2022/02/22 09:53:37;;;;;;;13.90;3.10;;;7.10;99.90;;;;;;5063619;28;20203;-46
2022/02/22 09:56:06;;;;;;;16.50;3.67;;;7.20;99.90;;;;;;5044445;28;20373;-43
2022/02/22 09:58:33;;;;;;;13.77;2.80;;;7.20;99.90;;;;;;5063525;28;20202;-44
2022/02/22 10:01:01;;;;;;;10.53;2.90;;;7.20;99.90;;;;;;5059354;28;20800;-42
2022/02/22 10:03:28;;;;;;;13.97;3.33;;;7.20;99.90;;;;;;5063516;28;20256;-44
2022/02/22 10:05:56;;;;;;;12.37;3.07;;;7.20;99.90;;;;;;5059571;28;20205;-43
2022/02/22 10:08:31;;;;;;;15.47;3.23;;;7.20;99.90;;;;;;5063206;28;20281;-43
2022/02/22 10:11:04;;;;;;;19.47;3.40;;;7.20;99.90;;;;;;5059108;28;20237;-43
2022/02/22 10:13:31;;;;;;;13.93;3.47;;;7.20;99.90;;;;;;5049299;28;20210;-43
2022/02/22 10:15:59;;;;;;;16.60;3.43;;;7.10;99.90;;;;;;5058856;28;20229;-43
2022/02/22 10:18:26;;;;;;;16.43;2.87;;;7.10;99.90;;;;;;5063381;28;20291;-47
2022/02/22 10:20:53;;;;;;;16.47;3.27;;;7.10;99.90;;;;;;5060389;28;20233;-43
2022/02/22 10:23:29;;;;;;;15.80;3.17;;;7.10;99.90;;;;;;5063024;28;20282;-44
2022/02/22 10:25:57;;;;;;;15.73;2.73;;;7.10;99.90;;;;;;5059674;28;20218;-45
2022/02/22 10:28:25;;;;;;;13.60;2.90;;;7.10;99.90;;;;;;5045540;28;20731;-43
2022/02/22 10:30:53;;;;;;;11.33;3.23;;;7.20;99.90;;;;;;5059856;28;20234;-45
2022/02/22 10:33:22;;;;;;;17.43;3.30;;;7.20;99.90;;;;;;5062483;28;20226;-45
2022/02/22 10:35:51;;;;;;;9.37;2.10;;;7.20;99.90;;;;;;5068521;28;20230;-47
2022/02/22 10:38:21;;;;;;;12.63;2.50;;;7.30;99.90;;;;;;5062766;28;20570;-44
2022/02/22 10:40:57;;;;;;;14.27;2.90;;;7.20;99.90;;;;;;5060962;28;20211;-46
2022/02/22 10:43:30;;;;;;;18.10;2.67;;;7.30;99.90;;;;;;5063209;28;20209;-44
2022/02/22 10:46:00;;;;;;;14.13;3.67;;;7.30;99.90;;;;;;5044534;28;20635;-44
2022/02/22 10:48:29;;;;;;;13.93;2.70;;;7.30;99.90;;;;;;5063322;28;20203;-44
2022/02/22 10:50:57;;;;;;;16.40;3.20;;;7.40;99.90;;;;;;5059328;28;20218;-43
2022/02/22 10:53:29;;;;;;;19.77;3.37;;;7.50;99.90;;;;;;5063248;28;20217;-44
2022/02/22 10:55:58;;;;;;;17.90;3.67;;;7.40;99.90;;;;;;5059041;28;20301;-44
2022/02/22 10:58:25;;;;;;;14.00;2.73;;;7.50;99.90;;;;;;5063195;28;20198;-44
2022/02/22 11:00:53;;;;;;;10.87;2.87;;;7.40;99.90;;;;;;5048629;28;20213;-44
2022/02/22 11:03:20;;;;;;;10.80;2.70;;;7.40;99.90;;;;;;5066477;28;20659;-44
2022/02/22 11:05:48;;;;;;;15.77;3.20;;;7.40;99.90;;;;;;5060784;28;20539;-47
2022/02/22 11:08:16;;;;;;;13.70;2.43;;;7.40;99.90;;;;;;5061388;28;20221;-43
2022/02/22 11:10:52;;;;;;;16.97;2.90;;;7.40;99.90;;;;;;5062021;28;20272;-45
2022/02/22 11:13:27;;;;;;;12.50;3.43;;;7.40;99.90;;;;;;5061648;28;20233;-43
2022/02/22 11:15:54;;;;;;;14.97;3.07;;;7.40;99.90;;;;;;5044221;28;20620;-43
2022/02/22 11:18:23;;;;;;;21.53;2.80;;;7.30;99.90;;;;;;5062820;28;20206;-43
2022/02/22 11:20:50;;;;;;;12.97;3.07;;;7.40;99.90;;;;;;5063560;28;20257;-44
2022/02/22 11:23:25;;;;;;;16.37;3.37;;;7.40;99.90;;;;;;5065377;28;20256;-46
2022/02/22 11:26:05;;;;;;;17.07;3.57;;;7.40;99.90;;;;;;5063414;28;20194;-46
2022/02/22 11:28:38;;;;;;;19.50;4.33;;;7.40;99.90;;;;;;5066584;28;20198;-44
2022/02/22 11:31:10;;;;;;;16.67;2.83;;;7.40;99.90;;;;;;5046595;28;20261;-41
2022/02/22 11:33:42;;;;;;;10.03;2.70;;;7.50;99.90;;;;;;5063727;28;20203;-41
2022/02/22 11:36:10;;;;;;;17.20;3.17;;;7.50;99.90;;;;;;5061620;28;20225;-43
2022/02/22 11:38:42;;;;;;;13.07;3.30;;;7.50;99.90;;;;;;5066353;28;20214;-43
2022/02/22 11:41:17;;;;;;;16.63;4.13;;;7.40;99.90;;;;;;5062957;28;20233;-43
2022/02/22 11:43:58;;;;;;;12.30;2.37;;;7.40;99.90;;;;;;5065193;28;20300;-44
2022/02/22 11:46:40;;;;;;;11.60;2.77;;;7.50;99.90;;;;;;5060314;28;20671;-44
2022/02/22 11:49:08;;;;;;;24.40;4.40;;;7.40;99.90;;;;;;5050021;28;20305;-42
2022/02/22 11:51:42;;;;;;;16.67;3.33;;;7.30;99.90;;;;;;5065617;28;20241;-42
2022/02/22 11:54:13;;;;;;;11.23;2.60;;;7.40;99.90;;;;;;5062805;28;20194;-43
2022/02/22 11:56:42;;;;;;;12.53;3.20;;;7.40;99.90;;;;;;5065175;28;20246;-42
2022/02/22 11:59:21;;;;;;;16.37;2.87;;;7.40;99.90;;;;;;5061487;28;20788;-43
2022/02/22 12:01:50;;;;;;;12.53;3.33;;;7.50;99.90;;;;;;5063737;28;20194;-43
2022/02/22 12:04:22;;;;;;;15.57;2.80;;;7.50;99.90;;;;;;5049766;28;20203;-48
2022/02/22 12:06:52;;;;;;;15.10;2.70;;;7.50;99.90;;;;;;5063022;28;20202;-43
2022/02/22 12:09:20;;;;;;;15.70;3.00;;;7.50;99.90;;;;;;5059045;28;20222;-46
2022/02/22 12:11:47;;;;;;;16.73;4.30;;;7.50;99.90;;;;;;5064294;28;20198;-43
2022/02/22 12:14:15;;;;;;;14.17;3.20;;;7.50;99.90;;;;;;5063491;28;20748;-47
2022/02/22 12:16:45;;;;;;;11.47;2.90;;;7.50;99.90;;;;;;5064329;28;20214;-44
2022/02/22 12:19:15;;;;;;;11.93;2.87;;;7.60;99.90;;;;;;5048513;28;20244;-42
2022/02/22 12:21:44;;;;;;;19.27;3.53;;;7.60;99.90;;;;;;5064553;28;20194;-42
2022/02/22 12:24:13;;;;;;;16.60;3.03;;;7.70;99.90;;;;;;5062469;28;20190;-44
2022/02/22 12:26:40;;;;;;;15.47;2.57;;;7.60;99.90;;;;;;5064845;28;20286;-47
2022/02/22 12:29:08;;;;;;;14.47;3.70;;;7.60;99.90;;;;;;5061662;28;20195;-43
2022/02/22 12:31:37;;;;;;;11.47;3.57;;;7.50;99.90;;;;;;5065125;28;20195;-45
2022/02/22 12:34:07;;;;;;;10.73;2.47;;;7.60;99.90;;;;;;5046778;28;20198;-44
2022/02/22 12:36:35;;;;;;;14.47;2.70;;;7.60;99.90;;;;;;5073542;28;20210;-43
2022/02/22 12:39:04;;;;;;;15.33;3.03;;;7.60;99.90;;;;;;5080446;28;20983;-44
2022/02/22 12:41:37;;;;;;;18.80;3.93;;;7.60;99.90;;;;;;5084434;28;20198;-47
2022/02/22 12:44:08;;;;;;;20.90;4.17;;;7.60;99.90;;;;;;5080572;28;20284;-43
2022/02/22 12:46:39;;;;;;;14.83;3.27;;;7.60;99.90;;;;;;5084381;28;20600;-44
2022/02/22 12:49:08;;;;;;;17.87;3.50;;;7.60;99.90;;;;;;5061362;28;20207;-45
2022/02/22 12:51:35;;;;;;;15.20;3.97;;;7.60;99.90;;;;;;5062756;28;20257;-46